sensor_id;sensor_type;location;lat;lon;timestamp;pressure;altitude;pressure_sealevel;temperature
79089;BMP280;68489;50.286;9.452;2024-01-30T00:00:05;98513.06;;;2.77
79089;BMP280;68489;50.286;9.452;2024-01-30T00:02:32;98512.34;;;2.80
79089;BMP280;68489;50.286;9.452;2024-01-30T00:04:57;98507.44;;;2.79
79089;BMP280;68489;50.286;9.452;2024-01-30T00:07:22;98507.63;;;2.89
79089;BMP280;68489;50.286;9.452;2024-01-30T00:09:48;98512.63;;;2.98
79089;BMP280;68489;50.286;9.452;2024-01-30T00:12:13;98512.63;;;2.98
79089;BMP280;68489;50.286;9.452;2024-01-30T00:14:41;98508.44;;;2.93
79089;BMP280;68489;50.286;9.452;2024-01-30T00:17:06;98510.97;;;2.86
79089;BMP280;68489;50.286;9.452;2024-01-30T00:19:32;98510.69;;;2.91
79089;BMP280;68489;50.286;9.452;2024-01-30T00:21:57;98517.72;;;2.87
79089;BMP280;68489;50.286;9.452;2024-01-30T00:24:22;98514.19;;;2.80
79089;BMP280;68489;50.286;9.452;2024-01-30T00:26:48;98517.13;;;2.75
79089;BMP280;68489;50.286;9.452;2024-01-30T00:29:13;98518.38;;;2.81
79089;BMP280;68489;50.286;9.452;2024-01-30T00:31:44;98519.06;;;2.78
79089;BMP280;68489;50.286;9.452;2024-01-30T00:34:10;98515.69;;;2.77
79089;BMP280;68489;50.286;9.452;2024-01-30T00:36:35;98507.78;;;2.77
79089;BMP280;68489;50.286;9.452;2024-01-30T00:39:00;98507.38;;;2.75
79089;BMP280;68489;50.286;9.452;2024-01-30T00:41:26;98507.72;;;2.73
79089;BMP280;68489;50.286;9.452;2024-01-30T00:43:52;98507.66;;;2.70
79089;BMP280;68489;50.286;9.452;2024-01-30T00:46:17;98506.47;;;2.67
79089;BMP280;68489;50.286;9.452;2024-01-30T00:48:42;98506.09;;;2.65
79089;BMP280;68489;50.286;9.452;2024-01-30T00:51:08;98506.72;;;2.59
79089;BMP280;68489;50.286;9.452;2024-01-30T00:53:33;98497.94;;;2.51
79089;BMP280;68489;50.286;9.452;2024-01-30T00:55:58;98502.72;;;2.45
79089;BMP280;68489;50.286;9.452;2024-01-30T00:58:24;98496.28;;;2.43
79089;BMP280;68489;50.286;9.452;2024-01-30T01:00:49;98502.63;;;2.42
79089;BMP280;68489;50.286;9.452;2024-01-30T01:03:15;98489.78;;;2.37
79089;BMP280;68489;50.286;9.452;2024-01-30T01:05:40;98490.22;;;2.39
79089;BMP280;68489;50.286;9.452;2024-01-30T01:08:06;98488.28;;;2.36
79089;BMP280;68489;50.286;9.452;2024-01-30T01:10:31;98490.22;;;2.39
79089;BMP280;68489;50.286;9.452;2024-01-30T01:12:57;98490.59;;;2.41
79089;BMP280;68489;50.286;9.452;2024-01-30T01:15:22;98487.66;;;2.42
79089;BMP280;68489;50.286;9.452;2024-01-30T01:17:47;98487.78;;;2.49
79089;BMP280;68489;50.286;9.452;2024-01-30T01:20:13;98485.28;;;2.57
79089;BMP280;68489;50.286;9.452;2024-01-30T01:22:38;98493.13;;;2.76
79089;BMP280;68489;50.286;9.452;2024-01-30T01:25:04;98489.88;;;2.83
79089;BMP280;68489;50.286;9.452;2024-01-30T01:27:32;98492.44;;;3.02
79089;BMP280;68489;50.286;9.452;2024-01-30T01:29:58;98497.47;;;3.11
79089;BMP280;68489;50.286;9.452;2024-01-30T01:32:23;98501.28;;;3.13
79089;BMP280;68489;50.286;9.452;2024-01-30T01:34:48;98497.94;;;3.16
79089;BMP280;68489;50.286;9.452;2024-01-30T01:37:14;98503.53;;;3.15
79089;BMP280;68489;50.286;9.452;2024-01-30T01:39:39;98497.75;;;3.06
79089;BMP280;68489;50.286;9.452;2024-01-30T01:42:04;98494.59;;;2.97
79089;BMP280;68489;50.286;9.452;2024-01-30T01:44:30;98494.91;;;2.91
79089;BMP280;68489;50.286;9.452;2024-01-30T01:46:56;98493.38;;;2.90
79089;BMP280;68489;50.286;9.452;2024-01-30T01:49:24;98500.56;;;2.93
79089;BMP280;68489;50.286;9.452;2024-01-30T01:51:51;98497.13;;;2.89
79089;BMP280;68489;50.286;9.452;2024-01-30T01:54:19;98495.81;;;2.80
79089;BMP280;68489;50.286;9.452;2024-01-30T01:56:45;98490.50;;;2.76
79089;BMP280;68489;50.286;9.452;2024-01-30T01:59:10;98495.22;;;2.67
79089;BMP280;68489;50.286;9.452;2024-01-30T02:01:39;98483.16;;;2.62
79089;BMP280;68489;50.286;9.452;2024-01-30T02:04:08;98486.84;;;2.58
79089;BMP280;68489;50.286;9.452;2024-01-30T02:06:37;98488.19;;;2.52
79089;BMP280;68489;50.286;9.452;2024-01-30T02:09:03;98487.72;;;2.46
79089;BMP280;68489;50.286;9.452;2024-01-30T02:11:29;98485.28;;;2.37
79089;BMP280;68489;50.286;9.452;2024-01-30T02:13:55;98487.41;;;2.28
79089;BMP280;68489;50.286;9.452;2024-01-30T02:16:20;98483.59;;;2.25
79089;BMP280;68489;50.286;9.452;2024-01-30T02:18:46;98486.16;;;2.22
79089;BMP280;68489;50.286;9.452;2024-01-30T02:21:15;98475.78;;;2.29
79089;BMP280;68489;50.286;9.452;2024-01-30T02:23:40;98475.47;;;2.34
79089;BMP280;68489;50.286;9.452;2024-01-30T02:26:07;98467.19;;;2.32
79089;BMP280;68489;50.286;9.452;2024-01-30T02:28:32;98473.00;;;2.41
79089;BMP280;68489;50.286;9.452;2024-01-30T02:30:57;98471.47;;;2.40
79089;BMP280;68489;50.286;9.452;2024-01-30T02:33:23;98473.00;;;2.41
79089;BMP280;68489;50.286;9.452;2024-01-30T02:35:48;98465.19;;;2.45
79089;BMP280;68489;50.286;9.452;2024-01-30T02:38:15;98471.19;;;2.45
79089;BMP280;68489;50.286;9.452;2024-01-30T02:40:40;98467.75;;;2.41
79089;BMP280;68489;50.286;9.452;2024-01-30T02:43:06;98460.16;;;2.36
79089;BMP280;68489;50.286;9.452;2024-01-30T02:45:31;98471.63;;;2.47
79089;BMP280;68489;50.286;9.452;2024-01-30T02:47:57;98466.78;;;2.49
79089;BMP280;68489;50.286;9.452;2024-01-30T02:50:22;98461.81;;;2.44
79089;BMP280;68489;50.286;9.452;2024-01-30T02:52:47;98467.13;;;2.48
79089;BMP280;68489;50.286;9.452;2024-01-30T02:55:13;98473.97;;;2.53
79089;BMP280;68489;50.286;9.452;2024-01-30T02:57:39;98465.72;;;2.54
79089;BMP280;68489;50.286;9.452;2024-01-30T03:00:05;98460.16;;;2.56
79089;BMP280;68489;50.286;9.452;2024-01-30T03:02:32;98456.13;;;2.62
79089;BMP280;68489;50.286;9.452;2024-01-30T03:04:59;98465.03;;;2.57
79089;BMP280;68489;50.286;9.452;2024-01-30T03:07:24;98456.34;;;2.53
79089;BMP280;68489;50.286;9.452;2024-01-30T03:09:49;98459.72;;;2.54
79089;BMP280;68489;50.286;9.452;2024-01-30T03:12:15;98454.97;;;2.59
79089;BMP280;68489;50.286;9.452;2024-01-30T03:14:40;98454.25;;;2.62
79089;BMP280;68489;50.286;9.452;2024-01-30T03:17:05;98463.69;;;2.63
79089;BMP280;68489;50.286;9.452;2024-01-30T03:19:31;98462.50;;;2.61
79089;BMP280;68489;50.286;9.452;2024-01-30T03:21:56;98458.97;;;2.53
79089;BMP280;68489;50.286;9.452;2024-01-30T03:24:22;98461.06;;;2.44
79089;BMP280;68489;50.286;9.452;2024-01-30T03:26:47;98465.31;;;2.33
79089;BMP280;68489;50.286;9.452;2024-01-30T03:29:12;98458.38;;;2.21
79089;BMP280;68489;50.286;9.452;2024-01-30T03:31:38;98457.06;;;2.11
79089;BMP280;68489;50.286;9.452;2024-01-30T03:34:04;98454.22;;;2.00
79089;BMP280;68489;50.286;9.452;2024-01-30T03:36:29;98459.31;;;1.93
79089;BMP280;68489;50.286;9.452;2024-01-30T03:38:58;98459.09;;;1.83
79089;BMP280;68489;50.286;9.452;2024-01-30T03:41:23;98447.28;;;1.73
79089;BMP280;68489;50.286;9.452;2024-01-30T03:43:48;98450.88;;;1.65
79089;BMP280;68489;50.286;9.452;2024-01-30T03:46:13;98451.03;;;1.56
79089;BMP280;68489;50.286;9.452;2024-01-30T03:48:39;98449.38;;;1.48
79089;BMP280;68489;50.286;9.452;2024-01-30T03:51:05;98454.03;;;1.39
79089;BMP280;68489;50.286;9.452;2024-01-30T03:53:31;98446.81;;;1.35
79089;BMP280;68489;50.286;9.452;2024-01-30T03:55:56;98448.22;;;1.29
79089;BMP280;68489;50.286;9.452;2024-01-30T03:58:21;98447.03;;;1.27
79089;BMP280;68489;50.286;9.452;2024-01-30T04:00:47;98446.53;;;1.21
79089;BMP280;68489;50.286;9.452;2024-01-30T04:03:12;98444.16;;;1.16
79089;BMP280;68489;50.286;9.452;2024-01-30T04:05:39;98445.00;;;1.20
79089;BMP280;68489;50.286;9.452;2024-01-30T04:08:05;98443.06;;;1.17
79089;BMP280;68489;50.286;9.452;2024-01-30T04:10:30;98449.75;;;1.15
79089;BMP280;68489;50.286;9.452;2024-01-30T04:12:56;98440.34;;;1.13
79089;BMP280;68489;50.286;9.452;2024-01-30T04:15:21;98449.66;;;1.11
79089;BMP280;68489;50.286;9.452;2024-01-30T04:17:46;98442.97;;;1.13
79089;BMP280;68489;50.286;9.452;2024-01-30T04:20:14;98451.25;;;1.16
79089;BMP280;68489;50.286;9.452;2024-01-30T04:22:39;98440.44;;;1.17
79089;BMP280;68489;50.286;9.452;2024-01-30T04:25:05;98442.97;;;1.13
79089;BMP280;68489;50.286;9.452;2024-01-30T04:27:30;98446.69;;;1.12
79089;BMP280;68489;50.286;9.452;2024-01-30T04:29:56;98446.69;;;1.12
79089;BMP280;68489;50.286;9.452;2024-01-30T04:32:21;98450.31;;;1.08
79089;BMP280;68489;50.286;9.452;2024-01-30T04:34:46;98447.63;;;1.04
79089;BMP280;68489;50.286;9.452;2024-01-30T04:37:12;98448.72;;;1.03
79089;BMP280;68489;50.286;9.452;2024-01-30T04:39:37;98452.03;;;1.00
79089;BMP280;68489;50.286;9.452;2024-01-30T04:42:03;98445.59;;;0.98
79089;BMP280;68489;50.286;9.452;2024-01-30T04:44:28;98453.03;;;0.96
79089;BMP280;68489;50.286;9.452;2024-01-30T04:46:53;98450.72;;;0.94
79089;BMP280;68489;50.286;9.452;2024-01-30T04:49:19;98447.78;;;0.96
79089;BMP280;68489;50.286;9.452;2024-01-30T04:51:44;98448.88;;;0.95
79089;BMP280;68489;50.286;9.452;2024-01-30T04:54:09;98445.47;;;0.94
79089;BMP280;68489;50.286;9.452;2024-01-30T04:56:35;98442.34;;;0.88
79089;BMP280;68489;50.286;9.452;2024-01-30T04:59:02;98439.72;;;0.88
79089;BMP280;68489;50.286;9.452;2024-01-30T05:01:27;98444.66;;;0.90
79089;BMP280;68489;50.286;9.452;2024-01-30T05:03:53;98447.28;;;0.90
79089;BMP280;68489;50.286;9.452;2024-01-30T05:06:25;98454.38;;;0.89
79089;BMP280;68489;50.286;9.452;2024-01-30T05:08:51;98454.69;;;0.88
79089;BMP280;68489;50.286;9.452;2024-01-30T05:11:16;98457.66;;;0.86
79089;BMP280;68489;50.286;9.452;2024-01-30T05:13:41;98454.19;;;0.82
79089;BMP280;68489;50.286;9.452;2024-01-30T05:16:06;98455.97;;;0.78
79089;BMP280;68489;50.286;9.452;2024-01-30T05:18:32;98458.91;;;0.77
79089;BMP280;68489;50.286;9.452;2024-01-30T05:20:57;98449.84;;;0.74
79089;BMP280;68489;50.286;9.452;2024-01-30T05:23:23;98444.97;;;0.73
79089;BMP280;68489;50.286;9.452;2024-01-30T05:25:48;98451.28;;;0.72
79089;BMP280;68489;50.286;9.452;2024-01-30T05:28:13;98457.63;;;0.71
79089;BMP280;68489;50.286;9.452;2024-01-30T05:30:39;98458.38;;;0.71
79089;BMP280;68489;50.286;9.452;2024-01-30T05:33:04;98467.00;;;0.72
79089;BMP280;68489;50.286;9.452;2024-01-30T05:35:29;98451.81;;;0.77
79089;BMP280;68489;50.286;9.452;2024-01-30T05:37:55;98453.66;;;0.77
79089;BMP280;68489;50.286;9.452;2024-01-30T05:40:20;98457.38;;;0.76
79089;BMP280;68489;50.286;9.452;2024-01-30T05:42:45;98453.91;;;0.72
79089;BMP280;68489;50.286;9.452;2024-01-30T05:45:11;98461.34;;;0.70
79089;BMP280;68489;50.286;9.452;2024-01-30T05:47:36;98461.66;;;0.68
79089;BMP280;68489;50.286;9.452;2024-01-30T05:50:01;98472.06;;;0.64
79089;BMP280;68489;50.286;9.452;2024-01-30T05:52:27;98462.34;;;0.65
79089;BMP280;68489;50.286;9.452;2024-01-30T05:54:52;98461.59;;;0.64
79089;BMP280;68489;50.286;9.452;2024-01-30T05:57:17;98465.41;;;0.67
79089;BMP280;68489;50.286;9.452;2024-01-30T05:59:44;98463.97;;;0.70
79089;BMP280;68489;50.286;9.452;2024-01-30T06:02:10;98464.38;;;0.72
79089;BMP280;68489;50.286;9.452;2024-01-30T06:04:36;98465.56;;;0.74
79089;BMP280;68489;50.286;9.452;2024-01-30T06:07:01;98465.16;;;0.72
79089;BMP280;68489;50.286;9.452;2024-01-30T06:09:27;98466.59;;;0.70
79089;BMP280;68489;50.286;9.452;2024-01-30T06:11:52;98465.03;;;0.68
79089;BMP280;68489;50.286;9.452;2024-01-30T06:14:18;98460.91;;;0.67
79089;BMP280;68489;50.286;9.452;2024-01-30T06:16:43;98461.34;;;0.70
79089;BMP280;68489;50.286;9.452;2024-01-30T06:19:08;98455.75;;;0.71
79089;BMP280;68489;50.286;9.452;2024-01-30T06:21:33;98462.84;;;0.71
79089;BMP280;68489;50.286;9.452;2024-01-30T06:24:02;98458.38;;;0.71
79089;BMP280;68489;50.286;9.452;2024-01-30T06:26:27;98469.72;;;0.75
79089;BMP280;68489;50.286;9.452;2024-01-30T06:28:53;98465.66;;;0.78
79089;BMP280;68489;50.286;9.452;2024-01-30T06:31:18;98473.84;;;0.76
79089;BMP280;68489;50.286;9.452;2024-01-30T06:33:46;98458.91;;;0.77
79089;BMP280;68489;50.286;9.452;2024-01-30T06:36:11;98461.50;;;0.77
79089;BMP280;68489;50.286;9.452;2024-01-30T06:38:36;98460.75;;;0.76
79089;BMP280;68489;50.286;9.452;2024-01-30T06:41:02;98464.88;;;0.77
79089;BMP280;68489;50.286;9.452;2024-01-30T06:43:27;98463.81;;;0.78
79089;BMP280;68489;50.286;9.452;2024-01-30T06:45:52;98458.91;;;0.77
79089;BMP280;68489;50.286;9.452;2024-01-30T06:48:17;98470.25;;;0.81
79089;BMP280;68489;50.286;9.452;2024-01-30T06:50:43;98461.28;;;0.82
79089;BMP280;68489;50.286;9.452;2024-01-30T06:53:08;98466.94;;;0.84
79089;BMP280;68489;50.286;9.452;2024-01-30T06:55:34;98462.38;;;0.81
79089;BMP280;68489;50.286;9.452;2024-01-30T06:57:59;98465.41;;;0.83
79089;BMP280;68489;50.286;9.452;2024-01-30T07:00:24;98462.78;;;0.83
79089;BMP280;68489;50.286;9.452;2024-01-30T07:02:49;98463.13;;;0.81
79089;BMP280;68489;50.286;9.452;2024-01-30T07:05:15;98466.28;;;0.87
79089;BMP280;68489;50.286;9.452;2024-01-30T07:07:40;98473.03;;;0.88
79089;BMP280;68489;50.286;9.452;2024-01-30T07:10:06;98464.50;;;0.91
79089;BMP280;68489;50.286;9.452;2024-01-30T07:12:31;98473.53;;;0.94
79089;BMP280;68489;50.286;9.452;2024-01-30T07:14:57;98470.59;;;0.95
79089;BMP280;68489;50.286;9.452;2024-01-30T07:17:24;98468.81;;;0.99
79089;BMP280;68489;50.286;9.452;2024-01-30T07:19:50;98468.50;;;1.01
79089;BMP280;68489;50.286;9.452;2024-01-30T07:22:15;98471.94;;;1.05
79089;BMP280;68489;50.286;9.452;2024-01-30T07:24:43;98470.50;;;1.07
79089;BMP280;68489;50.286;9.452;2024-01-30T07:27:14;98473.88;;;1.08
79089;BMP280;68489;50.286;9.452;2024-01-30T07:29:39;98471.69;;;1.10
79089;BMP280;68489;50.286;9.452;2024-01-30T07:32:05;98465.03;;;1.12
79089;BMP280;68489;50.286;9.452;2024-01-30T07:34:30;98476.38;;;1.17
79089;BMP280;68489;50.286;9.452;2024-01-30T07:36:55;98473.47;;;1.22
79089;BMP280;68489;50.286;9.452;2024-01-30T07:39:20;98470.97;;;1.25
79089;BMP280;68489;50.286;9.452;2024-01-30T07:41:46;98464.28;;;1.28
79089;BMP280;68489;50.286;9.452;2024-01-30T07:44:11;98468.09;;;1.30
79089;BMP280;68489;50.286;9.452;2024-01-30T07:46:36;98464.41;;;1.35
79089;BMP280;68489;50.286;9.452;2024-01-30T07:49:02;98468.66;;;1.40
79089;BMP280;68489;50.286;9.452;2024-01-30T07:51:27;98472.78;;;1.41
79089;BMP280;68489;50.286;9.452;2024-01-30T07:53:54;98474.38;;;1.45
79089;BMP280;68489;50.286;9.452;2024-01-30T07:56:20;98481.56;;;1.48
79089;BMP280;68489;50.286;9.452;2024-01-30T07:58:45;98474.13;;;1.50
79089;BMP280;68489;50.286;9.452;2024-01-30T08:01:10;98477.25;;;1.56
79089;BMP280;68489;50.286;9.452;2024-01-30T08:03:36;98475.41;;;1.56
79089;BMP280;68489;50.286;9.452;2024-01-30T08:06:02;98474.03;;;1.63
79089;BMP280;68489;50.286;9.452;2024-01-30T08:08:28;98473.78;;;1.68
79089;BMP280;68489;50.286;9.452;2024-01-30T08:10:53;98481.38;;;1.73
79089;BMP280;68489;50.286;9.452;2024-01-30T08:13:18;98473.25;;;1.78
79089;BMP280;68489;50.286;9.452;2024-01-30T08:15:44;98486.13;;;1.83
79089;BMP280;68489;50.286;9.452;2024-01-30T08:18:09;98484.63;;;1.86
79089;BMP280;68489;50.286;9.452;2024-01-30T08:20:34;98476.47;;;1.91
79089;BMP280;68489;50.286;9.452;2024-01-30T08:23:00;98478.84;;;1.96
79089;BMP280;68489;50.286;9.452;2024-01-30T08:25:25;98478.66;;;2.04
79089;BMP280;68489;50.286;9.452;2024-01-30T08:27:51;98474.00;;;2.14
79089;BMP280;68489;50.286;9.452;2024-01-30T08:30:16;98480.53;;;2.23
79089;BMP280;68489;50.286;9.452;2024-01-30T08:32:42;98481.50;;;2.35
79089;BMP280;68489;50.286;9.452;2024-01-30T08:35:07;98482.53;;;2.49
79089;BMP280;68489;50.286;9.452;2024-01-30T08:37:33;98480.94;;;2.64
79089;BMP280;68489;50.286;9.452;2024-01-30T08:39:58;98492.72;;;2.74
79089;BMP280;68489;50.286;9.452;2024-01-30T08:42:24;98489.53;;;2.84
79089;BMP280;68489;50.286;9.452;2024-01-30T08:44:50;98489.72;;;2.95
79089;BMP280;68489;50.286;9.452;2024-01-30T08:47:17;98494.66;;;3.00
79089;BMP280;68489;50.286;9.452;2024-01-30T08:49:43;98500.38;;;3.06
79089;BMP280;68489;50.286;9.452;2024-01-30T08:52:12;98506.53;;;3.13
79089;BMP280;68489;50.286;9.452;2024-01-30T08:54:37;98507.34;;;3.17
79089;BMP280;68489;50.286;9.452;2024-01-30T08:57:03;98504.09;;;3.24
79089;BMP280;68489;50.286;9.452;2024-01-30T08:59:29;98507.63;;;3.35
79089;BMP280;68489;50.286;9.452;2024-01-30T09:01:54;98501.84;;;3.53
79089;BMP280;68489;50.286;9.452;2024-01-30T09:04:23;98510.25;;;3.62
79089;BMP280;68489;50.286;9.452;2024-01-30T09:06:49;98508.91;;;3.72
79089;BMP280;68489;50.286;9.452;2024-01-30T09:09:14;98511.66;;;3.82
79089;BMP280;68489;50.286;9.452;2024-01-30T09:11:40;98506.91;;;3.92
79089;BMP280;68489;50.286;9.452;2024-01-30T09:14:05;98515.72;;;4.06
79089;BMP280;68489;50.286;9.452;2024-01-30T09:16:31;98521.88;;;4.18
79089;BMP280;68489;50.286;9.452;2024-01-30T09:18:56;98522.84;;;4.36
79089;BMP280;68489;50.286;9.452;2024-01-30T09:21:21;98515.81;;;4.47
79089;BMP280;68489;50.286;9.452;2024-01-30T09:23:47;98535.16;;;4.58
79089;BMP280;68489;50.286;9.452;2024-01-30T09:26:12;98532.63;;;4.73
79089;BMP280;68489;50.286;9.452;2024-01-30T09:28:38;98529.38;;;4.87
79089;BMP280;68489;50.286;9.452;2024-01-30T09:31:03;98526.09;;;5.00
79089;BMP280;68489;50.286;9.452;2024-01-30T09:33:28;98533.72;;;5.09
79089;BMP280;68489;50.286;9.452;2024-01-30T09:35:54;98531.91;;;5.20
79089;BMP280;68489;50.286;9.452;2024-01-30T09:38:19;98533.88;;;5.31
79089;BMP280;68489;50.286;9.452;2024-01-30T09:40:49;98531.31;;;5.38
79089;BMP280;68489;50.286;9.452;2024-01-30T09:43:25;98535.47;;;5.42
79089;BMP280;68489;50.286;9.452;2024-01-30T09:45:53;98535.56;;;5.57
79089;BMP280;68489;50.286;9.452;2024-01-30T09:48:19;98535.25;;;5.69
79089;BMP280;68489;50.286;9.452;2024-01-30T09:50:44;98534.59;;;5.86
79089;BMP280;68489;50.286;9.452;2024-01-30T09:53:11;98539.53;;;5.95
79089;BMP280;68489;50.286;9.452;2024-01-30T09:55:38;98535.00;;;5.92
79089;BMP280;68489;50.286;9.452;2024-01-30T09:58:05;98530.88;;;5.91
79089;BMP280;68489;50.286;9.452;2024-01-30T10:00:30;98530.09;;;5.94
79089;BMP280;68489;50.286;9.452;2024-01-30T10:02:56;98532.34;;;5.85
79089;BMP280;68489;50.286;9.452;2024-01-30T10:05:26;98517.59;;;5.84
79089;BMP280;68489;50.286;9.452;2024-01-30T10:07:56;98523.69;;;5.88
79089;BMP280;68489;50.286;9.452;2024-01-30T10:10:22;98525.94;;;5.93
79089;BMP280;68489;50.286;9.452;2024-01-30T10:12:49;98523.69;;;5.88
79089;BMP280;68489;50.286;9.452;2024-01-30T10:15:14;98525.56;;;5.87
79089;BMP280;68489;50.286;9.452;2024-01-30T10:17:40;98527.47;;;5.97
79089;BMP280;68489;50.286;9.452;2024-01-30T10:20:06;98527.09;;;5.95
79089;BMP280;68489;50.286;9.452;2024-01-30T10:22:32;98519.59;;;6.01
79089;BMP280;68489;50.286;9.452;2024-01-30T10:24:57;98526.38;;;5.98
79089;BMP280;68489;50.286;9.452;2024-01-30T10:27:25;98534.28;;;5.98
79089;BMP280;68489;50.286;9.452;2024-01-30T10:29:51;98536.19;;;6.02
79089;BMP280;68489;50.286;9.452;2024-01-30T10:32:17;98537.69;;;6.03
79089;BMP280;68489;50.286;9.452;2024-01-30T10:34:42;98537.34;;;6.11
79089;BMP280;68489;50.286;9.452;2024-01-30T10:37:09;98532.09;;;6.15
79089;BMP280;68489;50.286;9.452;2024-01-30T10:39:41;98525.31;;;6.24
79089;BMP280;68489;50.286;9.452;2024-01-30T10:42:11;98532.88;;;6.26
79089;BMP280;68489;50.286;9.452;2024-01-30T10:44:44;98532.53;;;6.42
79089;BMP280;68489;50.286;9.452;2024-01-30T10:47:16;98526.91;;;6.47
79089;BMP280;68489;50.286;9.452;2024-01-30T10:49:43;98535.19;;;6.56
79089;BMP280;68489;50.286;9.452;2024-01-30T10:52:09;98529.94;;;6.67
79089;BMP280;68489;50.286;9.452;2024-01-30T10:54:36;98528.03;;;6.78
79089;BMP280;68489;50.286;9.452;2024-01-30T10:57:03;98529.59;;;6.93
79089;BMP280;68489;50.286;9.452;2024-01-30T10:59:30;98523.53;;;7.07
79089;BMP280;68489;50.286;9.452;2024-01-30T11:01:57;98521.28;;;7.13
79089;BMP280;68489;50.286;9.452;2024-01-30T11:04:23;98516.75;;;7.21
79089;BMP280;68489;50.286;9.452;2024-01-30T11:06:50;98517.09;;;7.37
79089;BMP280;68489;50.286;9.452;2024-01-30T11:09:17;98508.34;;;7.54
79089;BMP280;68489;50.286;9.452;2024-01-30T11:11:55;98503.00;;;7.72
79089;BMP280;68489;50.286;9.452;2024-01-30T11:14:25;98515.03;;;7.87
79089;BMP280;68489;50.286;9.452;2024-01-30T11:16:57;98507.81;;;7.95
79089;BMP280;68489;50.286;9.452;2024-01-30T11:19:23;98507.41;;;7.97
79089;BMP280;68489;50.286;9.452;2024-01-30T11:21:52;98499.06;;;8.05
79089;BMP280;68489;50.286;9.452;2024-01-30T11:24:20;98508.53;;;8.03
79089;BMP280;68489;50.286;9.452;2024-01-30T11:26:48;98505.47;;;8.15
79089;BMP280;68489;50.286;9.452;2024-01-30T11:29:14;98511.91;;;8.07
79089;BMP280;68489;50.286;9.452;2024-01-30T11:31:40;98513.41;;;8.08
79089;BMP280;68489;50.286;9.452;2024-01-30T11:34:16;98514.16;;;8.08
79089;BMP280;68489;50.286;9.452;2024-01-30T11:36:42;98522.88;;;8.12
79089;BMP280;68489;50.286;9.452;2024-01-30T11:39:08;98520.28;;;8.02
79089;BMP280;68489;50.286;9.452;2024-01-30T11:41:34;98508.94;;;8.01
79089;BMP280;68489;50.286;9.452;2024-01-30T11:43:59;98517.63;;;8.02
79089;BMP280;68489;50.286;9.452;2024-01-30T11:46:25;98516.91;;;7.98
79089;BMP280;68489;50.286;9.452;2024-01-30T11:48:50;98516.91;;;7.94
79089;BMP280;68489;50.286;9.452;2024-01-30T11:51:16;98505.16;;;7.95
79089;BMP280;68489;50.286;9.452;2024-01-30T11:53:44;98505.91;;;7.99
79089;BMP280;68489;50.286;9.452;2024-01-30T11:56:12;98501.75;;;8.02
79089;BMP280;68489;50.286;9.452;2024-01-30T11:58:37;98501.38;;;8.03
79089;BMP280;68489;50.286;9.452;2024-01-30T12:01:07;98504.72;;;8.07
79089;BMP280;68489;50.286;9.452;2024-01-30T12:03:32;98507.31;;;8.22
79089;BMP280;68489;50.286;9.452;2024-01-30T12:05:58;98517.91;;;8.22
79089;BMP280;68489;50.286;9.452;2024-01-30T12:08:23;98508.81;;;8.19
79089;BMP280;68489;50.286;9.452;2024-01-30T12:10:56;98504.66;;;8.18
79089;BMP280;68489;50.286;9.452;2024-01-30T12:13:22;98508.00;;;8.33
79089;BMP280;68489;50.286;9.452;2024-01-30T12:15:47;98506.50;;;8.28
79089;BMP280;68489;50.286;9.452;2024-01-30T12:18:13;98506.53;;;8.25
79089;BMP280;68489;50.286;9.452;2024-01-30T12:20:38;98503.44;;;8.37
79089;BMP280;68489;50.286;9.452;2024-01-30T12:23:03;98497.31;;;8.44
79089;BMP280;68489;50.286;9.452;2024-01-30T12:25:29;98501.06;;;8.50
79089;BMP280;68489;50.286;9.452;2024-01-30T12:27:54;98507.50;;;8.49
79089;BMP280;68489;50.286;9.452;2024-01-30T12:30:20;98497.66;;;8.49
79089;BMP280;68489;50.286;9.452;2024-01-30T12:32:46;98503.34;;;8.51
79089;BMP280;68489;50.286;9.452;2024-01-30T12:35:14;98497.25;;;8.54
79089;BMP280;68489;50.286;9.452;2024-01-30T12:37:40;98497.66;;;8.53
79089;BMP280;68489;50.286;9.452;2024-01-30T12:40:10;98480.97;;;8.56
79089;BMP280;68489;50.286;9.452;2024-01-30T12:42:36;98481.66;;;8.60
79089;BMP280;68489;50.286;9.452;2024-01-30T12:45:02;98494.16;;;8.63
79089;BMP280;68489;50.286;9.452;2024-01-30T12:47:28;98480.16;;;8.62
79089;BMP280;68489;50.286;9.452;2024-01-30T12:49:53;98473.69;;;8.67
79089;BMP280;68489;50.286;9.452;2024-01-30T12:52:19;98472.47;;;8.72
79089;BMP280;68489;50.286;9.452;2024-01-30T12:54:45;98473.25;;;8.69
79089;BMP280;68489;50.286;9.452;2024-01-30T12:57:11;98475.88;;;8.76
79089;BMP280;68489;50.286;9.452;2024-01-30T12:59:36;98476.91;;;8.89
79089;BMP280;68489;50.286;9.452;2024-01-30T13:02:01;98479.88;;;8.91
79089;BMP280;68489;50.286;9.452;2024-01-30T13:04:28;98475.34;;;8.92
79089;BMP280;68489;50.286;9.452;2024-01-30T13:06:53;98478.81;;;8.85
79089;BMP280;68489;50.286;9.452;2024-01-30T13:09:19;98482.59;;;8.87
79089;BMP280;68489;50.286;9.452;2024-01-30T13:11:44;98486.34;;;8.90
79089;BMP280;68489;50.286;9.452;2024-01-30T13:14:10;98486.41;;;8.86
79089;BMP280;68489;50.286;9.452;2024-01-30T13:16:35;98486.00;;;8.88
79089;BMP280;68489;50.286;9.452;2024-01-30T13:19:01;98497.25;;;9.03
79089;BMP280;68489;50.286;9.452;2024-01-30T13:21:27;98482.84;;;9.00
79089;BMP280;68489;50.286;9.452;2024-01-30T13:23:52;98476.03;;;8.99
79089;BMP280;68489;50.286;9.452;2024-01-30T13:26:20;98486.25;;;9.01
79089;BMP280;68489;50.286;9.452;2024-01-30T13:28:45;98477.34;;;9.18
79089;BMP280;68489;50.286;9.452;2024-01-30T13:31:10;98490.59;;;9.25
79089;BMP280;68489;50.286;9.452;2024-01-30T13:33:36;98487.00;;;9.39
79089;BMP280;68489;50.286;9.452;2024-01-30T13:36:01;98480.94;;;9.38
79089;BMP280;68489;50.286;9.452;2024-01-30T13:38:26;98485.06;;;9.43
79089;BMP280;68489;50.286;9.452;2024-01-30T13:40:52;98477.06;;;9.47
79089;BMP280;68489;50.286;9.452;2024-01-30T13:43:17;98465.63;;;9.53
79089;BMP280;68489;50.286;9.452;2024-01-30T13:45:43;98469.75;;;9.54
79089;BMP280;68489;50.286;9.452;2024-01-30T13:48:08;98466.63;;;9.63
79089;BMP280;68489;50.286;9.452;2024-01-30T13:50:34;98464.97;;;9.73
79089;BMP280;68489;50.286;9.452;2024-01-30T13:52:59;98465.28;;;9.78
79089;BMP280;68489;50.286;9.452;2024-01-30T13:55:25;98467.03;;;9.61
79089;BMP280;68489;50.286;9.452;2024-01-30T13:57:50;98477.31;;;9.56
79089;BMP280;68489;50.286;9.452;2024-01-30T14:00:16;98484.09;;;9.60
79089;BMP280;68489;50.286;9.452;2024-01-30T14:02:42;98480.97;;;9.69
79089;BMP280;68489;50.286;9.452;2024-01-30T14:05:08;98478.03;;;9.63
79089;BMP280;68489;50.286;9.452;2024-01-30T14:07:35;98477.66;;;9.61
79089;BMP280;68489;50.286;9.452;2024-01-30T14:10:00;98476.41;;;9.70
79089;BMP280;68489;50.286;9.452;2024-01-30T14:12:26;98473.00;;;9.69